createdAt,value
2018-01-15T00:01:53.588Z,88.10
2018-01-15T00:04:21.146Z,88.30
2018-01-15T00:06:48.711Z,88.30
2018-01-15T00:09:16.256Z,88.40
2018-01-15T00:11:43.819Z,88.40
2018-01-15T00:14:11.359Z,88.50
2018-01-15T00:16:38.918Z,88.50
2018-01-15T00:19:07.252Z,88.50
2018-01-15T00:21:34.816Z,88.40
2018-01-15T00:24:03.128Z,88.30
2018-01-15T00:26:30.691Z,88.20
2018-01-15T00:28:59.006Z,88.40
2018-01-15T00:31:26.554Z,88.40
2018-01-15T00:33:54.108Z,88.40
2018-01-15T00:36:21.663Z,88.50
2018-01-15T00:38:49.220Z,88.70
2018-01-15T00:41:16.777Z,88.70
2018-01-15T00:43:44.344Z,89.10
2018-01-15T00:46:11.887Z,89.00
2018-01-15T00:48:40.215Z,89.00
2018-01-15T00:51:07.759Z,89.00
2018-01-15T00:53:35.347Z,88.90
2018-01-15T00:56:03.664Z,89.30
2018-01-15T00:58:31.982Z,88.90
2018-01-15T01:00:59.556Z,88.90
2018-01-15T01:03:27.124Z,88.70
2018-01-15T01:05:54.667Z,88.90
2018-01-15T01:08:22.224Z,88.80
2018-01-15T01:10:49.772Z,88.80
2018-01-15T01:13:18.094Z,88.80
2018-01-15T01:15:45.656Z,88.80
2018-01-15T01:18:13.955Z,88.90
2018-01-15T01:20:41.518Z,88.80
2018-01-15T01:23:09.064Z,88.70
2018-01-15T01:25:36.625Z,88.60
2018-01-15T01:28:04.940Z,88.70
2018-01-15T01:30:32.504Z,88.70
2018-01-15T01:33:00.839Z,88.70
2018-01-15T01:35:28.396Z,88.70
2018-01-15T01:37:56.699Z,88.80
2018-01-15T01:40:25.023Z,89.10
2018-01-15T01:42:52.571Z,89.10
2018-01-15T01:45:20.894Z,89.20
2018-01-15T01:47:48.439Z,89.20
2018-01-15T01:50:15.994Z,89.20
2018-01-15T01:52:43.526Z,89.20
2018-01-15T01:55:11.849Z,89.00
2018-01-15T01:57:39.393Z,88.90
2018-01-15T02:00:06.947Z,88.80
2018-01-15T02:02:34.484Z,88.90
2018-01-15T02:05:02.789Z,89.20
2018-01-15T02:07:31.119Z,89.20
2018-01-15T02:09:58.655Z,89.10
2018-01-15T02:12:26.996Z,89.90
2018-01-15T02:14:54.535Z,89.20
2018-01-15T02:17:22.096Z,89.10
2018-01-15T02:19:49.644Z,89.20
2018-01-15T02:22:17.215Z,89.20
2018-01-15T02:24:45.518Z,89.40
2018-01-15T02:27:13.843Z,89.50
2018-01-15T02:29:41.382Z,89.50
2018-01-15T02:32:08.939Z,89.40
2018-01-15T02:34:36.496Z,89.50
2018-01-15T02:37:04.055Z,89.40
2018-01-15T02:39:31.611Z,89.50
2018-01-15T02:41:59.170Z,89.60
2018-01-15T02:44:26.716Z,89.60
2018-01-15T02:46:54.277Z,89.50
2018-01-15T02:49:22.600Z,89.50
2018-01-15T02:51:50.156Z,89.50
2018-01-15T02:54:18.474Z,89.00
2018-01-15T02:56:46.801Z,89.00
2018-01-15T02:59:14.338Z,89.00
2018-01-15T03:01:41.923Z,89.20
2018-01-15T03:04:09.473Z,89.10
2018-01-15T03:06:37.006Z,89.10
2018-01-15T03:09:05.344Z,89.00
2018-01-15T03:11:32.884Z,89.00
2018-01-15T03:14:01.220Z,88.80
2018-01-15T03:16:28.762Z,88.80
2018-01-15T03:18:56.324Z,88.80
2018-01-15T03:21:23.904Z,88.90
2018-01-15T03:23:51.485Z,88.90
2018-01-15T03:26:19.027Z,89.10
2018-01-15T03:28:46.592Z,89.20
2018-01-15T03:31:14.905Z,89.40
2018-01-15T03:33:43.230Z,89.40
2018-01-15T03:36:10.767Z,89.40
2018-01-15T03:38:38.331Z,89.20
2018-01-15T03:41:05.880Z,89.30
2018-01-15T03:43:33.447Z,89.40
2018-01-15T03:46:00.996Z,89.40
2018-01-15T03:48:28.559Z,89.00
2018-01-15T03:50:56.863Z,89.00
2018-01-15T03:53:24.427Z,89.00
2018-01-15T03:55:51.976Z,89.00
2018-01-15T03:58:20.288Z,89.00
2018-01-15T04:00:47.855Z,88.90
2018-01-15T04:03:16.157Z,88.60
2018-01-15T04:05:44.487Z,88.50
2018-01-15T04:08:12.024Z,88.40
2018-01-15T04:10:39.579Z,88.70
2018-01-15T04:13:07.124Z,88.80
2018-01-15T04:15:35.450Z,88.60
2018-01-15T04:18:02.978Z,88.60
2018-01-15T04:20:30.540Z,88.30
2018-01-15T04:22:58.088Z,88.40
2018-01-15T04:25:25.647Z,88.30
2018-01-15T04:27:53.951Z,88.50
2018-01-15T04:30:22.275Z,88.60
2018-01-15T04:32:49.824Z,88.60
2018-01-15T04:35:17.384Z,88.40
2018-01-15T04:37:44.924Z,88.60
2018-01-15T04:40:12.483Z,88.40
2018-01-15T04:42:40.791Z,88.70
2018-01-15T04:45:09.114Z,88.50
2018-01-15T04:47:36.659Z,88.50
2018-01-15T04:50:04.205Z,88.40
2018-01-15T04:52:31.784Z,88.50
2018-01-15T04:54:59.339Z,88.20
2018-01-15T04:57:27.669Z,88.70
2018-01-15T04:59:55.232Z,88.70
2018-01-15T05:02:22.806Z,88.80
2018-01-15T05:04:51.113Z,88.60
2018-01-15T05:07:18.672Z,88.60
2018-01-15T05:09:46.282Z,88.50
2018-01-15T05:12:13.844Z,88.30
2018-01-15T05:14:41.388Z,88.30
2018-01-15T05:17:08.950Z,88.60
2018-01-15T05:19:36.492Z,88.60
2018-01-15T05:22:04.068Z,88.20
2018-01-15T05:24:31.608Z,88.50
2018-01-15T05:26:59.166Z,88.40
2018-01-15T05:29:28.112Z,88.20
2018-01-15T05:31:55.724Z,88.10
2018-01-15T05:34:24.067Z,88.40
2018-01-15T05:36:51.632Z,88.40
2018-01-15T05:39:19.944Z,88.30
2018-01-15T05:41:48.256Z,88.20
2018-01-15T05:44:15.820Z,88.10
2018-01-15T05:46:43.359Z,88.20
2018-01-15T05:49:10.919Z,88.20
2018-01-15T05:51:38.461Z,88.20
2018-01-15T05:54:06.024Z,88.10
2018-01-15T05:56:34.331Z,88.20
2018-01-15T05:59:01.892Z,88.10
2018-01-15T06:01:29.431Z,88.20
2018-01-15T06:03:57.755Z,88.50
2018-01-15T06:06:25.299Z,88.50
2018-01-15T06:08:53.643Z,88.90
2018-01-15T06:11:21.182Z,88.60
2018-01-15T06:13:48.748Z,88.30
2018-01-15T06:16:17.059Z,88.30
2018-01-15T06:18:44.620Z,88.30
2018-01-15T06:21:12.169Z,88.50
2018-01-15T06:23:39.736Z,88.40
2018-01-15T06:26:08.053Z,88.50
2018-01-15T06:28:36.380Z,88.30
2018-01-15T06:31:03.925Z,88.20
2018-01-15T06:33:32.248Z,88.40
2018-01-15T06:35:59.788Z,88.30
2018-01-15T06:38:27.336Z,88.50
2018-01-15T06:40:54.929Z,89.00
2018-01-15T06:43:22.472Z,88.40
2018-01-15T06:45:50.807Z,88.40
2018-01-15T06:48:18.344Z,88.30
2018-01-15T06:50:46.671Z,88.40
2018-01-15T06:53:14.218Z,88.30
2018-01-15T06:55:41.783Z,88.20
2018-01-15T06:58:09.334Z,88.20
2018-01-15T07:00:36.900Z,88.40
2018-01-15T07:03:04.452Z,88.20
2018-01-15T07:05:32.020Z,88.40
2018-01-15T07:07:59.592Z,88.20
2018-01-15T07:10:27.161Z,88.60
2018-01-15T07:12:54.717Z,88.50
2018-01-15T07:15:23.043Z,88.50
2018-01-15T07:17:50.580Z,88.50
2018-01-15T07:20:18.147Z,88.40
2018-01-15T07:22:45.721Z,88.40
2018-01-15T07:25:13.285Z,88.50
2018-01-15T07:27:40.824Z,88.50
2018-01-15T07:30:09.198Z,88.60
2018-01-15T07:32:36.728Z,88.40
2018-01-15T07:35:05.071Z,88.60
2018-01-15T07:37:32.615Z,88.60
2018-01-15T07:40:00.204Z,88.80
2018-01-15T07:42:27.771Z,89.50
2018-01-15T07:44:56.090Z,88.80
2018-01-15T07:47:23.656Z,88.70
2018-01-15T07:49:51.967Z,88.60
2018-01-15T07:52:20.318Z,88.60
2018-01-15T07:54:47.855Z,88.60
2018-01-15T07:57:16.176Z,88.90
2018-01-15T07:59:43.716Z,88.90
2018-01-15T08:02:11.287Z,89.00
2018-01-15T08:04:38.818Z,89.70
2018-01-15T08:07:06.379Z,89.10
2018-01-15T08:09:34.696Z,89.10
2018-01-15T08:12:02.275Z,89.10
2018-01-15T08:14:30.588Z,89.10
2018-01-15T08:16:58.140Z,89.10
2018-01-15T08:19:25.702Z,88.70
2018-01-15T08:21:53.250Z,88.70
2018-01-15T08:24:20.815Z,88.80
2018-01-15T08:26:49.123Z,88.40
2018-01-15T08:29:16.708Z,88.30
2018-01-15T08:31:44.243Z,88.50
2018-01-15T08:34:11.808Z,88.30
2018-01-15T08:36:39.362Z,88.40
2018-01-15T08:39:06.935Z,88.10
2018-01-15T08:41:35.243Z,87.90
2018-01-15T08:44:02.808Z,87.90
2018-01-15T08:46:31.120Z,88.10
2018-01-15T08:48:59.451Z,88.00
2018-01-15T08:51:27.008Z,88.00
2018-01-15T08:53:55.330Z,87.70
2018-01-15T08:56:22.871Z,87.60
2018-01-15T08:58:50.464Z,87.60
2018-01-15T09:01:18.808Z,87.50
2018-01-15T09:03:46.369Z,87.40
2018-01-15T09:06:13.912Z,87.40
2018-01-15T09:08:41.476Z,87.20
2018-01-15T09:11:09.795Z,87.90
2018-01-15T09:13:37.344Z,87.20
2018-01-15T09:16:04.904Z,87.00
2018-01-15T09:18:32.448Z,86.50
2018-01-15T09:21:00.014Z,86.60
2018-01-15T09:23:28.336Z,86.50
2018-01-15T09:25:55.923Z,86.50
2018-01-15T09:28:23.459Z,86.30
2018-01-15T09:30:51.024Z,85.70
2018-01-15T09:33:19.336Z,86.00
2018-01-15T09:35:46.929Z,85.90
2018-01-15T09:38:14.476Z,85.40
2018-01-15T09:40:42.798Z,85.70
2018-01-15T09:43:10.368Z,85.20
2018-01-15T09:45:38.710Z,84.70
2018-01-15T09:48:06.254Z,84.70
2018-01-15T09:50:34.563Z,83.90
2018-01-15T09:53:02.897Z,83.70
2018-01-15T09:55:30.450Z,83.60
2018-01-15T09:57:58.044Z,83.60
2018-01-15T10:00:25.603Z,82.50
2018-01-15T10:02:53.159Z,82.50
2018-01-15T10:05:20.699Z,82.00
2018-01-15T10:07:49.500Z,81.40
2018-01-15T10:10:17.804Z,81.50
2018-01-15T10:12:46.128Z,80.80
2018-01-15T10:15:14.304Z,80.80
2018-01-15T10:17:42.639Z,80.40
2018-01-15T10:20:10.216Z,80.40
2018-01-15T10:22:37.786Z,80.30
2018-01-15T10:25:06.087Z,80.10
2018-01-15T10:27:34.414Z,79.40
2018-01-15T10:30:01.960Z,79.40
2018-01-15T10:32:30.288Z,78.60
2018-01-15T10:34:57.848Z,78.60
2018-01-15T10:37:26.158Z,78.60
2018-01-15T10:39:54.478Z,78.00
2018-01-15T10:42:22.020Z,78.00
2018-01-15T10:44:49.584Z,77.80
2018-01-15T10:47:17.119Z,78.30
2018-01-15T10:49:44.675Z,77.30
2018-01-15T10:52:12.222Z,76.70
2018-01-15T10:54:39.783Z,77.60
2018-01-15T10:57:07.325Z,76.50
2018-01-15T10:59:34.895Z,76.20
2018-01-15T11:02:02.435Z,76.20
2018-01-15T11:04:29.997Z,75.70
2018-01-15T11:06:57.544Z,75.40
2018-01-15T11:09:25.102Z,75.20
2018-01-15T11:11:52.651Z,74.60
2018-01-15T11:14:20.212Z,74.00
2018-01-15T11:16:47.764Z,73.90
2018-01-15T11:19:15.367Z,73.70
2018-01-15T11:21:42.915Z,73.00
2018-01-15T11:24:10.497Z,72.80
2018-01-15T11:26:38.063Z,73.60
2018-01-15T11:29:05.600Z,73.30
2018-01-15T11:31:33.160Z,73.60
2018-01-15T11:34:00.699Z,73.60
2018-01-15T11:36:29.028Z,73.20
2018-01-15T11:38:56.563Z,73.10
2018-01-15T11:41:24.111Z,73.10
2018-01-15T11:43:51.653Z,73.00
2018-01-15T11:46:19.975Z,73.30
2018-01-15T11:48:47.511Z,73.30
2018-01-15T11:51:15.069Z,73.30
2018-01-15T11:53:42.612Z,73.60
2018-01-15T11:56:10.915Z,73.80
2018-01-15T11:58:39.247Z,73.20
2018-01-15T12:01:06.784Z,73.20
2018-01-15T12:03:35.108Z,74.10
2018-01-15T12:06:02.644Z,73.40
2018-01-15T12:08:30.232Z,74.00
2018-01-15T12:10:57.771Z,73.80
2018-01-15T12:13:25.346Z,73.70
2018-01-15T12:15:52.882Z,73.80
2018-01-15T12:18:20.435Z,73.90
2018-01-15T12:20:47.967Z,74.60
2018-01-15T12:23:16.295Z,74.80
2018-01-15T12:25:43.861Z,74.10
2018-01-15T12:28:12.180Z,73.50
2018-01-15T12:30:39.749Z,73.50
2018-01-15T12:33:08.079Z,72.90
2018-01-15T12:35:35.618Z,72.90
2018-01-15T12:38:03.980Z,73.20
2018-01-15T12:40:31.531Z,73.00
2018-01-15T12:42:59.837Z,73.00
2018-01-15T12:45:27.404Z,73.20
2018-01-15T12:47:55.728Z,72.80
2018-01-15T12:50:23.300Z,72.80
2018-01-15T12:52:51.608Z,72.80
2018-01-15T12:55:19.174Z,72.80
2018-01-15T12:57:47.484Z,72.20
2018-01-15T13:00:15.831Z,72.60
2018-01-15T13:02:43.385Z,72.50
2018-01-15T13:05:10.942Z,73.10
2018-01-15T13:07:50.393Z,72.40
2018-01-15T13:10:17.956Z,72.80
2018-01-15T13:12:45.501Z,72.70
2018-01-15T13:15:13.057Z,72.50
2018-01-15T13:17:40.605Z,72.90
2018-01-15T13:20:08.933Z,72.60
2018-01-15T13:22:36.467Z,72.60
2018-01-15T13:25:04.027Z,72.30
2018-01-15T13:27:32.332Z,73.30
2018-01-15T13:30:00.683Z,73.60
2018-01-15T13:32:28.222Z,73.40
2018-01-15T13:34:56.560Z,74.10
2018-01-15T13:37:24.094Z,74.10
2018-01-15T13:39:52.423Z,73.90
2018-01-15T13:42:19.965Z,73.90
2018-01-15T13:44:47.508Z,74.10
2018-01-15T13:47:15.073Z,74.00
2018-01-15T13:49:42.603Z,74.20
2018-01-15T13:52:10.163Z,73.90
2018-01-15T13:54:37.709Z,74.00
2018-01-15T13:57:05.297Z,74.00
2018-01-15T13:59:33.608Z,74.30
2018-01-15T14:02:01.177Z,74.30
2018-01-15T14:04:29.481Z,74.60
2018-01-15T14:06:57.811Z,74.30
2018-01-15T14:09:25.343Z,74.30
2018-01-15T14:11:52.903Z,74.40
2018-01-15T14:14:20.443Z,74.60
2018-01-15T14:16:48.005Z,74.80
2018-01-15T14:19:16.307Z,75.00
2018-01-15T14:21:44.632Z,75.00
2018-01-15T14:24:12.171Z,74.90
2018-01-15T14:26:39.703Z,75.10
2018-01-15T14:29:07.263Z,74.80
2018-01-15T14:31:35.589Z,75.10
2018-01-15T14:34:03.183Z,75.10
2018-01-15T14:36:30.717Z,75.10
2018-01-15T14:38:58.279Z,74.70
2018-01-15T14:41:25.832Z,75.00
2018-01-15T14:43:53.386Z,75.10
2018-01-15T14:46:21.695Z,75.60
2018-01-15T14:48:50.027Z,75.80
2018-01-15T14:51:17.644Z,75.80
2018-01-15T14:53:46.009Z,75.90
2018-01-15T14:56:13.564Z,75.90
2018-01-15T14:58:41.889Z,75.80
2018-01-15T15:01:09.644Z,75.80
2018-01-15T15:03:37.951Z,75.80
2018-01-15T15:06:05.515Z,75.70
2018-01-15T15:08:33.115Z,76.00
2018-01-15T15:11:00.701Z,76.00
2018-01-15T15:15:55.806Z,76.50
2018-01-15T15:18:23.349Z,76.20
2018-01-15T15:20:50.902Z,76.30
2018-01-15T15:23:18.459Z,76.20
2018-01-15T15:25:46.018Z,76.20
2018-01-15T15:28:14.339Z,76.50
2018-01-15T15:30:41.900Z,76.40
2018-01-15T15:33:10.211Z,76.50
2018-01-15T15:35:37.771Z,76.40
2018-01-15T15:38:05.312Z,76.40
2018-01-15T15:40:32.868Z,76.60
2018-01-15T15:43:00.420Z,76.50
2018-01-15T15:45:27.979Z,76.50
2018-01-15T15:47:55.556Z,76.60
2018-01-15T15:50:23.107Z,76.60
2018-01-15T15:52:51.213Z,76.80
2018-01-15T15:55:18.834Z,76.80
2018-01-15T15:57:46.441Z,76.90
2018-01-15T16:00:14.145Z,77.00
2018-01-15T16:02:41.733Z,76.80
2018-01-15T16:05:10.038Z,76.90
2018-01-15T16:07:38.361Z,77.00
2018-01-15T16:10:06.050Z,77.00
2018-01-15T16:12:33.612Z,76.70
2018-01-15T16:15:01.917Z,76.30
2018-01-15T16:17:29.544Z,76.30
2018-01-15T16:19:57.104Z,76.50
2018-01-15T16:22:33.757Z,76.50
2018-01-15T16:25:02.276Z,76.50
2018-01-15T16:27:29.852Z,76.40
2018-01-15T16:29:58.186Z,76.50
2018-01-15T16:32:25.767Z,76.50
2018-01-15T16:34:53.568Z,76.70
2018-01-15T16:37:21.108Z,76.50
2018-01-15T16:39:49.159Z,77.60
2018-01-15T16:42:16.865Z,76.50
2018-01-15T16:44:44.436Z,76.60
2018-01-15T16:47:12.070Z,76.30
2018-01-15T16:49:39.654Z,76.40
2018-01-15T16:52:08.001Z,76.70
2018-01-15T16:54:35.964Z,76.70
2018-01-15T16:57:03.639Z,76.80
2018-01-15T16:59:31.453Z,76.30
2018-01-15T17:01:59.045Z,76.30
2018-01-15T17:04:27.175Z,76.70
2018-01-15T17:06:54.727Z,76.60
2018-01-15T17:09:22.271Z,76.20
2018-01-15T17:11:49.917Z,76.50
2018-01-15T17:14:17.466Z,76.60
2018-01-15T17:16:45.028Z,76.70
2018-01-15T17:19:13.454Z,76.80
2018-01-15T17:21:41.027Z,76.80
2018-01-15T17:24:09.326Z,77.10
2018-01-15T17:26:37.660Z,77.20
2018-01-15T17:29:05.195Z,77.20
2018-01-15T17:31:32.760Z,77.10
2018-01-15T17:34:00.314Z,77.00
2018-01-15T17:36:27.885Z,77.10
2018-01-15T17:38:55.437Z,77.30
2018-01-15T17:41:23.004Z,77.00
2018-01-15T17:43:50.610Z,77.20
2018-01-15T17:46:19.040Z,77.00
2018-01-15T17:48:46.657Z,76.90
2018-01-15T17:51:14.229Z,77.00
2018-01-15T17:53:41.820Z,77.00
2018-01-15T17:56:09.417Z,77.10
2018-01-15T17:58:36.996Z,77.20
2018-01-15T18:01:04.700Z,77.20
2018-01-15T18:03:32.268Z,76.20
2018-01-15T18:05:59.813Z,76.80
2018-01-15T18:08:27.372Z,77.00
2018-01-15T18:10:54.912Z,76.90
2018-01-15T18:13:22.484Z,76.80
2018-01-15T18:15:50.028Z,76.80
2018-01-15T18:18:17.650Z,76.90
2018-01-15T18:20:45.203Z,76.70
2018-01-15T18:23:13.514Z,76.80
2018-01-15T18:25:41.844Z,76.70
2018-01-15T18:28:09.388Z,76.60
2018-01-15T18:30:36.961Z,76.70
2018-01-15T18:33:04.499Z,76.80
2018-01-15T18:35:32.067Z,76.60
2018-01-15T18:37:59.607Z,76.50
2018-01-15T18:40:27.180Z,76.70
2018-01-15T18:42:54.722Z,76.80
2018-01-15T18:45:22.299Z,76.60
2018-01-15T18:47:49.841Z,76.70
2018-01-15T18:50:17.413Z,76.70
2018-01-15T18:52:44.962Z,76.50
2018-01-15T18:55:12.531Z,76.40
2018-01-15T18:57:40.087Z,76.60
2018-01-15T19:00:07.660Z,76.50
2018-01-15T19:02:35.210Z,76.50
2018-01-15T19:05:02.767Z,78.20
2018-01-15T19:07:30.340Z,79.60
2018-01-15T19:09:58.656Z,80.60
2018-01-15T19:12:26.259Z,79.80
2018-01-15T19:14:53.795Z,79.80
2018-01-15T19:17:21.360Z,79.30
2018-01-15T19:19:48.904Z,79.00
2018-01-15T19:22:16.477Z,78.70
2018-01-15T19:24:44.077Z,79.00
2018-01-15T19:27:11.638Z,79.20
2018-01-15T19:29:39.953Z,79.90
2018-01-15T19:32:07.511Z,79.90
2018-01-15T19:34:42.274Z,81.40
2018-01-15T19:37:10.625Z,80.80
2018-01-15T19:39:38.178Z,80.70
2018-01-15T19:42:06.613Z,80.50
2018-01-15T19:44:39.876Z,80.60
2018-01-15T19:47:13.974Z,80.60
2018-01-15T19:49:47.233Z,80.50
2018-01-15T19:52:21.147Z,79.90
2018-01-15T19:54:54.571Z,79.90
2018-01-15T19:57:27.868Z,79.50
2018-01-15T20:00:00.990Z,79.70
2018-01-15T20:02:34.273Z,79.10
2018-01-15T20:05:07.564Z,79.00
2018-01-15T20:07:40.864Z,79.50
2018-01-15T20:10:14.129Z,79.40
2018-01-15T20:12:41.676Z,79.30
2018-01-15T20:15:09.240Z,79.10
2018-01-15T20:17:37.576Z,79.30
2018-01-15T20:20:05.904Z,79.40
2018-01-15T20:22:33.449Z,79.40
2018-01-15T20:25:01.023Z,79.30
2018-01-15T20:27:28.576Z,79.00
2018-01-15T20:29:56.153Z,79.10
2018-01-15T20:32:23.709Z,78.60
2018-01-15T20:34:52.045Z,78.70
2018-01-15T20:37:19.593Z,78.60
2018-01-15T20:39:47.921Z,78.70
2018-01-15T20:42:15.461Z,78.70
2018-01-15T20:44:43.848Z,78.40
2018-01-15T20:47:11.395Z,78.40
2018-01-15T20:49:38.940Z,78.50
2018-01-15T20:52:07.316Z,78.30
2018-01-15T20:54:34.897Z,78.20
2018-01-15T20:57:02.492Z,78.00
2018-01-15T20:59:30.153Z,77.90
2018-01-15T21:01:57.706Z,78.20
2018-01-15T21:04:25.252Z,78.10
2018-01-15T21:06:52.818Z,78.20
2018-01-15T21:09:20.352Z,78.10
2018-01-15T21:11:47.913Z,78.20
2018-01-15T21:14:15.465Z,78.30
2018-01-15T21:16:43.116Z,78.20
2018-01-15T21:19:10.656Z,77.90
2018-01-15T21:21:38.271Z,77.70
2018-01-15T21:24:06.589Z,77.20
2018-01-15T21:26:34.149Z,77.30
2018-01-15T21:29:02.459Z,77.30
2018-01-15T21:31:30.792Z,77.10
2018-01-15T21:33:58.340Z,77.00
2018-01-15T21:36:26.654Z,76.80
2018-01-15T21:38:54.219Z,76.80
2018-01-15T21:41:22.527Z,76.30
2018-01-15T21:43:50.913Z,76.30
2018-01-15T21:46:18.456Z,76.30
2018-01-15T21:48:46.025Z,75.60
2018-01-15T21:51:13.573Z,75.30
2018-01-15T21:53:42.201Z,75.40
2018-01-15T21:56:09.749Z,75.40
2018-01-15T21:58:37.321Z,75.30
2018-01-15T22:01:04.885Z,75.10
2018-01-15T22:03:32.496Z,75.20
2018-01-15T22:06:00.837Z,75.40
2018-01-15T22:08:29.269Z,75.20
2018-01-15T22:10:56.828Z,75.20
2018-01-15T22:13:24.552Z,75.20
2018-01-15T22:15:52.128Z,75.00
2018-01-15T22:18:19.699Z,74.60
2018-01-15T22:20:47.273Z,74.70
2018-01-15T22:23:14.845Z,74.80
2018-01-15T22:25:42.400Z,74.70
2018-01-15T22:28:09.953Z,74.70
2018-01-15T22:30:37.525Z,74.50
2018-01-15T22:33:05.307Z,74.60
2018-01-15T22:35:32.877Z,74.60
2018-01-15T22:38:01.196Z,74.70
2018-01-15T22:40:28.784Z,74.70
2018-01-15T22:42:56.341Z,75.20
2018-01-15T22:45:24.678Z,74.30
2018-01-15T22:47:53.101Z,74.40
2018-01-15T22:50:21.434Z,74.10
2018-01-15T22:52:49.761Z,74.50
2018-01-15T22:55:17.320Z,73.70
2018-01-15T22:57:44.869Z,73.70
2018-01-15T23:00:12.437Z,74.10
2018-01-15T23:02:39.985Z,73.60
2018-01-15T23:05:09.527Z,73.30
2018-01-15T23:07:37.096Z,73.30
2018-01-15T23:10:05.408Z,73.50
2018-01-15T23:12:33.750Z,73.20
2018-01-15T23:15:01.298Z,73.20
2018-01-15T23:17:29.628Z,73.00
2018-01-15T23:19:57.222Z,72.90
2018-01-15T23:22:24.997Z,73.10
2018-01-15T23:24:52.544Z,73.00
2018-01-15T23:27:20.872Z,73.50
2018-01-15T23:29:48.413Z,73.30
2018-01-15T23:32:15.981Z,73.70
2018-01-15T23:34:43.533Z,74.00
2018-01-15T23:37:11.096Z,74.50
2018-01-15T23:39:38.636Z,74.80
2018-01-15T23:42:06.208Z,75.50
2018-01-15T23:44:33.753Z,76.10
2018-01-15T23:47:01.327Z,76.20
2018-01-15T23:49:29.645Z,76.80
2018-01-15T23:51:57.208Z,76.80
2018-01-15T23:54:40.388Z,77.40
2018-01-15T23:57:07.956Z,77.40
2018-01-15T23:59:35.501Z,78.50
